createdAt,value
2019-02-02T00:00:40.138Z,99055.30
2019-02-02T00:03:13.170Z,99050.56
2019-02-02T00:05:45.358Z,99042.34
2019-02-02T00:08:17.666Z,99038.89
2019-02-02T00:10:49.979Z,99040.17
2019-02-02T00:13:22.310Z,99039.73
2019-02-02T00:15:54.615Z,99042.80
2019-02-02T00:18:27.115Z,99036.78
2019-02-02T00:20:59.377Z,99035.47
2019-02-02T00:23:31.621Z,99040.61
2019-02-02T00:26:04.572Z,99040.26
2019-02-02T00:28:36.860Z,99038.95
2019-02-02T00:31:09.089Z,99042.47
2019-02-02T00:33:41.627Z,99045.52
2019-02-02T00:36:13.820Z,99045.09
2019-02-02T00:38:46.025Z,99039.45
2019-02-02T00:41:18.341Z,99030.80
2019-02-02T00:43:50.723Z,99033.83
2019-02-02T00:46:22.980Z,99029.09
2019-02-02T00:48:55.415Z,99026.08
2019-02-02T00:51:27.606Z,99029.09
2019-02-02T00:53:59.839Z,99029.15
2019-02-02T00:56:32.051Z,99017.91
2019-02-02T00:59:04.308Z,99016.60
2019-02-02T01:01:37.633Z,99017.48
2019-02-02T01:04:10.062Z,99014.46
2019-02-02T01:06:42.310Z,99011.44
2019-02-02T01:09:24.614Z,99011.88
2019-02-02T01:11:57.038Z,99007.56
2019-02-02T01:14:29.348Z,99002.37
2019-02-02T01:17:02.668Z,99004.55
2019-02-02T01:19:35.085Z,99008.07
2019-02-02T01:22:07.324Z,99008.52
2019-02-02T01:24:39.682Z,99004.61
2019-02-02T01:27:11.904Z,99004.19
2019-02-02T01:29:44.093Z,99014.64
2019-02-02T01:32:16.437Z,99008.56
2019-02-02T01:34:48.659Z,99002.11
2019-02-02T01:37:24.198Z,98998.64
2019-02-02T01:39:56.448Z,98998.20
2019-02-02T01:42:28.761Z,98987.84
2019-02-02T01:45:00.961Z,98978.73
2019-02-02T01:47:33.241Z,98983.08
2019-02-02T01:50:06.787Z,98965.73
2019-02-02T01:52:38.998Z,98968.80
2019-02-02T01:55:12.561Z,98960.13
2019-02-02T01:57:45.071Z,98960.56
2019-02-02T02:00:28.838Z,98951.47
2019-02-02T02:03:02.248Z,98942.36
2019-02-02T02:05:36.133Z,98941.94
2019-02-02T02:08:08.393Z,98941.52
2019-02-02T02:10:40.640Z,98951.50
2019-02-02T02:13:12.868Z,98951.95
2019-02-02T02:15:46.179Z,98943.27
2019-02-02T02:18:19.305Z,98938.50
2019-02-02T02:20:51.518Z,98940.25
2019-02-02T02:23:23.745Z,98949.80
2019-02-02T02:25:56.095Z,98939.80
2019-02-02T02:28:30.417Z,98946.78
2019-02-02T02:31:02.640Z,98949.42
2019-02-02T02:33:34.935Z,98946.80
2019-02-02T02:36:07.241Z,98942.92
2019-02-02T02:38:40.326Z,98933.78
2019-02-02T02:41:12.610Z,98921.24
2019-02-02T02:43:44.818Z,98925.13
2019-02-02T02:46:17.014Z,98921.21
2019-02-02T02:48:49.325Z,98916.44
2019-02-02T02:51:21.551Z,98924.23
2019-02-02T02:53:53.894Z,98917.31
2019-02-02T02:56:26.332Z,98911.66
2019-02-02T02:58:58.645Z,98911.23
2019-02-02T03:01:30.840Z,98911.23
2019-02-02T03:04:03.125Z,98911.66
2019-02-02T03:06:36.538Z,98918.22
2019-02-02T03:09:10.198Z,98909.55
2019-02-02T03:11:42.528Z,98903.90
2019-02-02T03:14:14.770Z,98898.25
2019-02-02T03:16:47.191Z,98897.83
2019-02-02T03:19:19.410Z,98888.31
2019-02-02T03:21:51.688Z,98883.52
2019-02-02T03:24:23.911Z,98882.22
2019-02-02T03:26:56.217Z,98888.30
2019-02-02T03:29:28.562Z,98893.09
2019-02-02T03:32:00.873Z,98897.41
2019-02-02T03:34:33.070Z,98900.92
2019-02-02T03:37:05.296Z,98907.84
2019-02-02T03:39:37.578Z,98911.33
2019-02-02T03:42:09.877Z,98911.78
2019-02-02T03:44:42.171Z,98913.06
2019-02-02T03:47:14.379Z,98914.36
2019-02-02T03:49:46.629Z,98916.16
2019-02-02T03:52:18.847Z,98917.48
2019-02-02T03:54:51.428Z,98908.36
2019-02-02T03:57:23.663Z,98903.14
2019-02-02T03:59:55.927Z,98893.61
2019-02-02T04:02:28.180Z,98880.99
2019-02-02T04:05:00.548Z,98878.42
2019-02-02T04:07:32.763Z,98885.34
2019-02-02T04:10:06.149Z,98887.54
2019-02-02T04:12:38.705Z,98878.01
2019-02-02T04:15:12.059Z,98881.00
2019-02-02T04:17:44.405Z,98882.73
2019-02-02T04:20:18.558Z,98884.06
2019-02-02T04:22:51.240Z,98887.97
2019-02-02T04:25:23.996Z,98885.34
2019-02-02T04:27:56.354Z,98884.51
2019-02-02T04:30:28.709Z,98877.55
2019-02-02T04:33:01.488Z,98874.08
2019-02-02T04:35:33.681Z,98865.41
2019-02-02T04:38:06.687Z,98865.86
2019-02-02T04:40:39.125Z,98861.07
2019-02-02T04:43:11.412Z,98865.40
2019-02-02T04:45:43.628Z,98856.76
2019-02-02T04:48:15.912Z,98849.38
2019-02-02T04:50:48.159Z,98843.75
2019-02-02T04:53:20.366Z,98841.59
2019-02-02T04:55:52.702Z,98838.53
2019-02-02T04:58:25.044Z,98833.77
2019-02-02T05:00:57.317Z,98840.69
2019-02-02T05:03:29.541Z,98835.92
2019-02-02T05:06:01.777Z,98838.12
2019-02-02T05:08:34.033Z,98847.20
2019-02-02T05:11:06.239Z,98851.56
2019-02-02T05:13:38.544Z,98840.31
2019-02-02T05:16:10.734Z,98845.92
2019-02-02T05:18:44.519Z,98859.83
2019-02-02T05:21:16.752Z,98847.70
2019-02-02T05:23:49.011Z,98839.02
2019-02-02T05:26:21.212Z,98832.52
2019-02-02T05:28:53.532Z,98819.09
2019-02-02T05:31:25.758Z,98819.92
2019-02-02T05:33:57.983Z,98823.39
2019-02-02T05:36:30.184Z,98815.59
2019-02-02T05:39:02.501Z,98832.93
2019-02-02T05:41:35.661Z,98830.78
2019-02-02T05:44:07.898Z,98832.54
2019-02-02T05:46:41.233Z,98837.29
2019-02-02T05:49:13.515Z,98838.59
2019-02-02T05:51:45.730Z,98833.39
2019-02-02T05:54:17.982Z,98829.03
2019-02-02T05:56:50.277Z,98825.54
2019-02-02T05:59:22.596Z,98848.09
2019-02-02T06:01:54.788Z,98858.53
2019-02-02T06:04:27.171Z,98857.21
2019-02-02T06:06:59.407Z,98861.56
2019-02-02T06:09:31.646Z,98858.95
2019-02-02T06:12:03.884Z,98862.43
2019-02-02T06:14:36.115Z,98863.31
2019-02-02T06:17:08.376Z,98867.21
2019-02-02T06:19:40.637Z,98862.88
2019-02-02T06:22:12.985Z,98866.34
2019-02-02T06:24:45.256Z,98863.77
2019-02-02T06:27:17.613Z,98866.77
2019-02-02T06:29:49.779Z,98856.83
2019-02-02T06:32:21.990Z,98869.83
2019-02-02T06:34:54.207Z,98867.68
2019-02-02T06:37:26.492Z,98856.41
2019-02-02T06:39:58.712Z,98848.57
2019-02-02T06:42:30.950Z,98859.86
2019-02-02T06:45:03.148Z,98855.96
2019-02-02T06:47:35.444Z,98845.95
2019-02-02T06:50:09.503Z,98849.02
2019-02-02T06:52:41.883Z,98845.53
2019-02-02T06:55:15.088Z,98861.13
2019-02-02T06:57:47.682Z,98862.45
2019-02-02T07:00:21.724Z,98852.48
2019-02-02T07:02:55.966Z,98863.33
2019-02-02T07:05:28.378Z,98869.84
2019-02-02T07:08:00.904Z,98871.12
2019-02-02T07:10:33.378Z,98872.85
2019-02-02T07:13:05.866Z,98877.18
2019-02-02T07:15:38.093Z,98874.16
2019-02-02T07:18:11.407Z,98870.27
2019-02-02T07:20:43.738Z,98874.19
2019-02-02T07:23:16.088Z,98867.22
2019-02-02T07:25:48.525Z,98864.61
2019-02-02T07:28:26.330Z,98877.20
2019-02-02T07:30:59.077Z,98878.08
2019-02-02T07:33:31.838Z,98882.42
2019-02-02T07:36:05.993Z,98886.77
2019-02-02T07:38:41.529Z,98891.11
2019-02-02T07:41:18.647Z,98897.19
2019-02-02T07:43:51.259Z,98898.48
2019-02-02T07:46:23.667Z,98909.32
2019-02-02T07:48:56.072Z,98908.05
2019-02-02T07:51:33.839Z,98904.16
2019-02-02T07:54:47.717Z,98900.69
2019-02-02T07:57:18.964Z,98901.55
2019-02-02T07:59:56.580Z,98905.88
2019-02-02T08:02:28.873Z,98898.95
2019-02-02T08:05:01.666Z,98900.67
2019-02-02T08:07:36.911Z,98905.45
2019-02-02T08:10:11.108Z,98895.05
2019-02-02T08:12:43.960Z,98905.89
2019-02-02T08:15:18.947Z,98904.60
2019-02-02T08:17:51.346Z,98905.91
2019-02-02T08:20:24.918Z,98903.77
2019-02-02T08:23:00.240Z,98898.99
2019-02-02T08:25:32.512Z,98887.70
2019-02-02T08:28:05.706Z,98893.34
2019-02-02T08:30:38.184Z,98897.27
2019-02-02T08:33:10.676Z,98899.01
2019-02-02T08:35:43.210Z,98904.66
2019-02-02T08:38:18.005Z,98909.02
2019-02-02T08:40:50.353Z,98918.56
2019-02-02T08:43:22.580Z,98919.88
2019-02-02T08:45:54.861Z,98921.19
2019-02-02T08:48:27.103Z,98923.36
2019-02-02T08:50:59.345Z,98904.70
2019-02-02T08:53:31.853Z,98911.64
2019-02-02T08:56:04.061Z,98926.42
2019-02-02T08:58:36.290Z,98929.46
2019-02-02T09:01:10.790Z,98929.45
2019-02-02T09:03:42.942Z,98928.62
2019-02-02T09:06:15.179Z,98921.63
2019-02-02T09:08:47.487Z,98920.34
2019-02-02T09:11:19.685Z,98921.66
2019-02-02T09:13:52.049Z,98927.28
2019-02-02T09:16:24.375Z,98931.17
2019-02-02T09:18:56.702Z,98937.70
2019-02-02T09:21:29.034Z,98933.34
2019-02-02T09:24:01.539Z,98943.77
2019-02-02T09:26:33.931Z,98950.28
2019-02-02T09:29:06.267Z,98946.79
2019-02-02T09:31:38.463Z,98939.83
2019-02-02T09:34:11.956Z,98942.86
2019-02-02T09:36:45.412Z,98939.82
2019-02-02T09:39:17.803Z,98944.16
2019-02-02T09:41:53.612Z,98942.81
2019-02-02T09:44:26.270Z,98942.77
2019-02-02T09:47:00.242Z,98951.02
2019-02-02T09:49:32.621Z,98956.19
2019-02-02T09:52:05.026Z,98952.21
2019-02-02T09:55:23.404Z,98943.41
2019-02-02T09:57:58.365Z,98945.50
2019-02-02T10:00:31.827Z,98940.67
2019-02-02T10:03:04.627Z,98948.77
2019-02-02T10:05:36.908Z,98954.27
2019-02-02T10:08:09.294Z,98959.23
2019-02-02T10:10:41.734Z,98964.84
2019-02-02T10:13:14.339Z,98966.79
2019-02-02T10:15:46.650Z,98966.41
2019-02-02T10:18:19.898Z,98959.39
2019-02-02T10:21:03.336Z,98958.49
2019-02-02T10:23:26.214Z,98962.34
2019-02-02T10:25:58.548Z,98965.41
2019-02-02T10:28:30.781Z,98960.44
2019-02-02T10:31:03.112Z,98949.95
2019-02-02T10:33:35.336Z,98945.12
2019-02-02T10:36:07.924Z,98947.02
2019-02-02T10:38:40.244Z,98961.00
2019-02-02T10:41:12.631Z,98968.80
2019-02-02T10:43:44.822Z,98988.75
2019-02-02T10:46:17.060Z,98999.61
2019-02-02T10:48:49.302Z,98996.62
2019-02-02T10:51:21.556Z,98994.42
2019-02-02T10:53:53.882Z,99000.10
2019-02-02T10:56:26.122Z,99000.11
2019-02-02T10:58:58.351Z,99012.77
2019-02-02T11:01:30.582Z,99000.81
2019-02-02T11:04:02.874Z,98995.03
2019-02-02T11:06:37.752Z,98995.33
2019-02-02T11:09:10.823Z,98992.69
2019-02-02T11:11:43.214Z,98988.67
2019-02-02T11:14:15.495Z,98983.67
2019-02-02T11:16:47.921Z,98968.77
2019-02-02T11:19:20.180Z,98966.27
2019-02-02T11:21:52.430Z,98973.19
2019-02-02T11:24:24.608Z,98968.43
2019-02-02T11:26:56.877Z,98965.26
2019-02-02T11:29:29.046Z,98954.91
2019-02-02T11:32:02.812Z,98955.19
2019-02-02T11:34:35.217Z,98954.14
2019-02-02T11:37:07.458Z,98961.64
2019-02-02T11:39:39.650Z,98961.80
2019-02-02T11:42:11.876Z,98965.41
2019-02-02T11:44:44.145Z,98981.81
2019-02-02T11:47:16.520Z,98998.88
2019-02-02T11:49:48.829Z,98989.26
2019-02-02T11:52:23.224Z,98996.46
2019-02-02T11:54:55.056Z,99002.21
2019-02-02T11:57:27.652Z,98996.44
2019-02-02T11:59:59.907Z,98978.69
2019-02-02T12:02:32.273Z,98982.13
2019-02-02T12:05:04.919Z,98985.39
2019-02-02T12:07:37.325Z,98985.91
2019-02-02T12:10:11.510Z,98994.27
2019-02-02T12:12:43.932Z,98980.16
2019-02-02T12:15:17.448Z,98969.52
2019-02-02T12:17:50.202Z,98954.04
2019-02-02T12:20:22.826Z,98951.31
2019-02-02T12:22:55.095Z,98960.60
2019-02-02T12:25:27.493Z,98965.48
2019-02-02T12:27:59.860Z,98964.72
2019-02-02T12:30:34.010Z,98959.02
2019-02-02T12:33:07.027Z,98959.30
2019-02-02T12:35:39.559Z,98960.14
2019-02-02T12:38:11.861Z,98963.19
2019-02-02T12:40:44.120Z,98958.77
2019-02-02T12:43:16.527Z,98944.92
2019-02-02T12:45:53.716Z,98938.41
2019-02-02T12:48:26.152Z,98945.53
2019-02-02T12:50:58.539Z,98953.50
2019-02-02T12:53:33.485Z,98955.73
2019-02-02T12:56:05.862Z,98965.36
2019-02-02T12:58:38.133Z,98960.47
2019-02-02T13:01:10.379Z,98951.32
2019-02-02T13:03:42.693Z,98968.02
2019-02-02T13:06:14.966Z,98965.03
2019-02-02T13:08:47.279Z,98961.97
2019-02-02T13:11:20.594Z,98959.38
2019-02-02T13:13:52.802Z,98963.42
2019-02-02T13:16:25.038Z,98965.15
2019-02-02T13:18:57.318Z,98951.84
2019-02-02T13:21:29.588Z,98950.19
2019-02-02T13:24:02.256Z,98969.89
2019-02-02T13:26:34.498Z,98981.59
2019-02-02T13:29:06.733Z,98997.64
2019-02-02T13:31:39.173Z,99000.17
2019-02-02T13:34:11.435Z,98987.83
2019-02-02T13:36:43.769Z,99003.70
2019-02-02T13:39:16.036Z,99011.67
2019-02-02T13:41:48.379Z,99016.55
2019-02-02T13:44:20.611Z,99010.42
2019-02-02T13:46:53.134Z,99010.98
2019-02-02T13:49:25.570Z,99010.28
2019-02-02T13:51:59.203Z,99025.27
2019-02-02T13:54:31.513Z,99004.39
2019-02-02T13:57:03.894Z,99003.86
2019-02-02T13:59:36.212Z,99008.69
2019-02-02T14:02:08.530Z,99009.63
2019-02-02T14:04:40.860Z,99018.81
2019-02-02T14:07:18.176Z,99006.16
2019-02-02T14:09:47.029Z,99005.72
2019-02-02T14:12:20.300Z,99012.72
2019-02-02T14:14:54.540Z,99021.96
2019-02-02T14:17:27.960Z,99021.96
2019-02-02T14:20:00.354Z,99025.98
2019-02-02T14:22:34.923Z,99020.30
2019-02-02T14:25:07.975Z,99011.55
2019-02-02T14:27:40.575Z,99014.72
2019-02-02T14:30:16.087Z,99022.65
2019-02-02T14:32:48.553Z,99029.66
2019-02-02T14:35:22.177Z,99038.41
2019-02-02T14:37:54.552Z,99037.95
2019-02-02T14:40:27.128Z,99033.64
2019-02-02T14:42:59.415Z,99028.40
2019-02-02T14:45:31.699Z,99029.23
2019-02-02T14:48:04.062Z,99023.24
2019-02-02T14:50:38.605Z,99022.38
2019-02-02T14:53:11.087Z,99024.98
2019-02-02T14:55:45.930Z,99032.44
2019-02-02T14:58:19.380Z,99035.98
2019-02-02T15:00:53.887Z,99049.47
2019-02-02T15:03:26.359Z,99059.65
2019-02-02T15:05:58.679Z,99063.15
2019-02-02T15:08:31.087Z,99075.88
2019-02-02T15:11:03.335Z,99066.27
2019-02-02T15:13:35.589Z,99074.20
2019-02-02T15:16:07.856Z,99082.06
2019-02-02T15:18:40.184Z,99094.78
2019-02-02T15:21:12.497Z,99096.97
2019-02-02T15:23:48.211Z,99103.59
2019-02-02T15:26:20.588Z,99110.30
2019-02-02T15:28:53.014Z,99107.74
2019-02-02T15:31:25.365Z,99107.84
2019-02-02T15:33:57.805Z,99111.91
2019-02-02T15:36:30.061Z,99118.09
2019-02-02T15:39:02.538Z,99122.97
2019-02-02T15:41:39.558Z,99131.22
2019-02-02T15:44:11.970Z,99121.66
2019-02-02T15:46:49.075Z,99134.30
2019-02-02T15:49:18.321Z,99143.97
2019-02-02T15:51:51.530Z,99142.69
2019-02-02T15:54:24.310Z,99153.64
2019-02-02T15:56:56.534Z,99171.99
2019-02-02T15:59:29.037Z,99169.39
2019-02-02T16:02:01.351Z,99175.08
2019-02-02T16:04:34.832Z,99178.14
2019-02-02T16:07:07.332Z,99186.38
2019-02-02T16:09:40.679Z,99180.74
2019-02-02T16:12:13.122Z,99189.01
2019-02-02T16:14:45.564Z,99177.27
2019-02-02T16:17:18.014Z,99183.80
2019-02-02T16:19:50.346Z,99196.02
2019-02-02T16:22:22.653Z,99199.06
2019-02-02T16:24:55.141Z,99206.45
2019-02-02T16:27:27.491Z,99217.77
2019-02-02T16:30:01.535Z,99219.09
2019-02-02T16:32:38.274Z,99224.75
2019-02-02T16:35:11.239Z,99226.91
2019-02-02T16:37:53.200Z,99219.95
2019-02-02T16:40:29.191Z,99233.88
2019-02-02T16:43:01.544Z,99229.53
2019-02-02T16:45:33.960Z,99248.23
2019-02-02T16:48:07.089Z,99254.34
2019-02-02T16:50:39.515Z,99260.84
2019-02-02T16:53:11.797Z,99271.73
2019-02-02T16:55:55.834Z,99269.52
2019-02-02T16:59:00.468Z,99285.19
2019-02-02T17:01:34.895Z,99293.40
2019-02-02T17:04:16.314Z,99309.88
2019-02-02T17:06:49.223Z,99314.17
2019-02-02T17:09:21.692Z,99307.64
2019-02-02T17:11:54.081Z,99305.47
2019-02-02T17:14:28.741Z,99308.97
2019-02-02T17:17:57.451Z,99313.73
2019-02-02T17:21:01.719Z,99327.63
2019-02-02T17:23:43.447Z,99358.00
2019-02-02T17:26:15.878Z,99369.27
2019-02-02T17:28:48.693Z,99382.72
2019-02-02T17:31:21.278Z,99394.00
2019-02-02T17:33:56.250Z,99392.25
2019-02-02T17:36:28.953Z,99401.82
2019-02-02T17:39:01.633Z,99401.83
2019-02-02T17:41:35.638Z,99394.45
2019-02-02T17:44:08.550Z,99392.76
2019-02-02T17:46:58.541Z,99401.91
2019-02-02T17:49:43.245Z,99399.26
2019-02-02T17:52:19.831Z,99403.16
2019-02-02T17:55:08.870Z,99399.22
2019-02-02T17:58:04.371Z,99400.11
2019-02-02T18:00:42.994Z,99391.90
2019-02-02T18:03:16.618Z,99394.06
2019-02-02T18:05:53.136Z,99397.05
2019-02-02T18:08:25.906Z,99392.67
2019-02-02T18:10:58.649Z,99397.41
2019-02-02T18:13:32.197Z,99386.53
2019-02-02T18:16:04.795Z,99390.44
2019-02-02T18:18:37.713Z,99394.28
2019-02-02T18:21:17.163Z,99403.40
2019-02-02T18:23:49.740Z,99405.95
2019-02-02T18:26:23.289Z,99415.48
2019-02-02T18:28:56.497Z,99436.27
2019-02-02T18:31:31.433Z,99450.52
2019-02-02T18:34:07.476Z,99450.81
2019-02-02T18:36:40.629Z,99469.38
2019-02-02T18:39:18.785Z,99463.66
2019-02-02T18:41:51.545Z,99463.61
2019-02-02T18:44:25.516Z,99476.18
2019-02-02T18:47:05.460Z,99475.66
2019-02-02T18:49:38.208Z,99485.66
2019-02-02T18:52:11.103Z,99493.89
2019-02-02T18:54:43.546Z,99506.89
2019-02-02T18:57:20.346Z,99510.34
2019-02-02T19:03:07.131Z,99516.75
2019-02-02T19:06:11.511Z,99516.72
2019-02-02T19:08:45.350Z,99517.12
2019-02-02T19:11:18.026Z,99529.71
2019-02-02T19:14:01.249Z,99528.84
2019-02-02T19:16:33.952Z,99531.02
2019-02-02T19:19:08.426Z,99534.94
2019-02-02T19:21:41.463Z,99541.88
2019-02-02T19:24:13.953Z,99553.17
2019-02-02T19:26:46.472Z,99564.45
2019-02-02T19:29:19.036Z,99550.11
2019-02-02T19:31:51.405Z,99549.27
2019-02-02T19:34:25.500Z,99551.86
2019-02-02T19:37:03.141Z,99548.41
2019-02-02T19:39:39.768Z,99552.73
2019-02-02T19:42:12.204Z,99576.17
2019-02-02T19:44:48.876Z,99587.89
2019-02-02T19:47:21.545Z,99599.17
2019-02-02T19:49:54.387Z,99596.60
2019-02-02T19:52:28.475Z,99598.36
2019-02-02T19:55:00.980Z,99603.17
2019-02-02T19:57:45.564Z,99611.38
2019-02-02T20:00:22.155Z,99624.45
2019-02-02T20:02:55.236Z,99636.53
2019-02-02T20:05:29.279Z,99635.17
2019-02-02T20:08:03.578Z,99634.75
2019-02-02T20:10:43.705Z,99646.44
2019-02-02T20:13:17.690Z,99654.67
2019-02-02T20:15:50.334Z,99658.97
2019-02-02T20:18:25.528Z,99652.06
2019-02-02T20:20:59.704Z,99647.64
2019-02-02T20:23:38.418Z,99659.81
2019-02-02T20:26:09.013Z,99660.69
2019-02-02T20:28:41.547Z,99652.03
2019-02-02T20:31:14.024Z,99653.30
2019-02-02T20:33:46.334Z,99655.09
2019-02-02T20:36:18.720Z,99660.20
2019-02-02T20:38:51.305Z,99657.14
2019-02-02T20:41:25.360Z,99666.64
2019-02-02T20:43:57.912Z,99677.48
2019-02-02T20:46:30.297Z,99684.84
2019-02-02T20:49:02.705Z,99679.63
2019-02-02T20:51:35.055Z,99695.24
2019-02-02T20:54:07.963Z,99700.45
2019-02-02T20:56:40.454Z,99699.53
2019-02-02T20:59:12.934Z,99704.67
2019-02-02T21:01:45.587Z,99701.55
2019-02-02T21:04:18.104Z,99700.64
2019-02-02T21:06:50.444Z,99707.07
2019-02-02T21:09:22.972Z,99706.13
2019-02-02T21:11:57.412Z,99713.50
2019-02-02T21:14:30.476Z,99719.55
2019-02-02T21:17:03.834Z,99725.17
2019-02-02T21:19:37.570Z,99723.91
2019-02-02T21:22:10.705Z,99733.44
2019-02-02T21:24:46.606Z,99739.48
2019-02-02T21:27:23.491Z,99735.52
2019-02-02T21:30:03.295Z,99739.41
2019-02-02T21:32:37.921Z,99743.78
2019-02-02T21:35:16.613Z,99744.69
2019-02-02T21:37:52.497Z,99757.77
2019-02-02T21:40:30.213Z,99765.13
2019-02-02T21:43:14.094Z,99779.36
2019-02-02T21:45:46.408Z,99777.56
2019-02-02T21:48:18.835Z,99777.41
2019-02-02T21:50:53.090Z,99780.39
2019-02-02T21:53:30.010Z,99779.89
2019-02-02T21:56:03.357Z,99790.67
2019-02-02T21:58:41.028Z,99796.72
2019-02-02T22:01:23.726Z,99799.27
2019-02-02T22:03:51.377Z,99805.02
2019-02-02T22:06:24.083Z,99799.39
2019-02-02T22:08:56.736Z,99804.52
2019-02-02T22:11:29.184Z,99813.70
2019-02-02T22:14:01.495Z,99824.48
2019-02-02T22:16:34.850Z,99828.81
2019-02-02T22:19:07.903Z,99825.83
2019-02-02T22:21:42.021Z,99831.11
2019-02-02T22:24:15.842Z,99838.00
2019-02-02T22:26:52.379Z,99842.02
2019-02-02T22:29:26.465Z,99843.70
2019-02-02T22:31:59.094Z,99836.78
2019-02-02T22:34:31.402Z,99844.08
2019-02-02T22:37:19.495Z,99842.44
2019-02-02T22:39:58.329Z,99849.87
2019-02-02T22:42:34.296Z,99860.27
2019-02-02T22:45:11.545Z,99867.11
2019-02-02T22:47:43.392Z,99877.89
2019-02-02T22:50:23.967Z,99883.14
2019-02-02T22:52:56.570Z,99896.60
2019-02-02T22:55:28.808Z,99895.69
2019-02-02T22:58:01.077Z,99893.83
2019-02-02T23:01:03.856Z,99892.91
2019-02-02T23:03:48.655Z,99888.97
2019-02-02T23:06:49.749Z,99895.38
2019-02-02T23:10:14.370Z,99898.81
2019-02-02T23:13:26.440Z,99902.77
2019-02-02T23:16:32.430Z,99892.31
2019-02-02T23:19:06.027Z,99900.45
2019-02-02T23:21:38.480Z,99898.81
2019-02-02T23:24:12.312Z,99902.63
2019-02-02T23:26:44.692Z,99902.63
2019-02-02T23:29:20.202Z,99892.65
2019-02-02T23:31:52.757Z,99897.89
2019-02-02T23:34:27.721Z,99901.41
2019-02-02T23:37:00.140Z,99893.52
2019-02-02T23:39:36.868Z,99893.98
2019-02-02T23:42:38.850Z,99892.18
2019-02-02T23:45:16.263Z,99895.16
2019-02-02T23:47:53.231Z,99889.50
2019-02-02T23:50:28.423Z,99893.52
2019-02-02T23:53:01.086Z,99907.36
2019-02-02T23:55:40.521Z,99911.17
2019-02-02T23:58:15.507Z,99920.32
